sensor_id;sensor_type;location;lat;lon;timestamp;temperature;humidity
580;DHT22;276;48.392;9.950;2024-01-06T00:00:51;9.70;99.90
580;DHT22;276;48.392;9.950;2024-01-06T00:03:16;9.70;99.90
580;DHT22;276;48.392;9.950;2024-01-06T00:05:42;9.70;99.90
580;DHT22;276;48.392;9.950;2024-01-06T00:08:14;9.70;99.90
580;DHT22;276;48.392;9.950;2024-01-06T00:10:40;9.70;99.90
580;DHT22;276;48.392;9.950;2024-01-06T00:13:05;9.70;99.90
580;DHT22;276;48.392;9.950;2024-01-06T00:15:33;9.70;99.90
580;DHT22;276;48.392;9.950;2024-01-06T00:18:01;9.70;99.90
580;DHT22;276;48.392;9.950;2024-01-06T00:20:32;9.70;99.90
580;DHT22;276;48.392;9.950;2024-01-06T00:22:57;9.70;99.90
580;DHT22;276;48.392;9.950;2024-01-06T00:25:26;9.70;99.90
580;DHT22;276;48.392;9.950;2024-01-06T00:27:54;9.70;99.90
580;DHT22;276;48.392;9.950;2024-01-06T00:30:19;9.70;99.90
580;DHT22;276;48.392;9.950;2024-01-06T00:32:45;9.70;99.90
580;DHT22;276;48.392;9.950;2024-01-06T00:35:13;9.70;99.90
580;DHT22;276;48.392;9.950;2024-01-06T00:37:38;9.70;99.90
580;DHT22;276;48.392;9.950;2024-01-06T00:40:07;9.70;99.90
580;DHT22;276;48.392;9.950;2024-01-06T00:42:35;9.70;99.90
580;DHT22;276;48.392;9.950;2024-01-06T00:45:04;9.60;99.90
580;DHT22;276;48.392;9.950;2024-01-06T00:47:32;9.60;99.90
580;DHT22;276;48.392;9.950;2024-01-06T00:49:58;9.60;99.90
580;DHT22;276;48.392;9.950;2024-01-06T00:52:23;9.60;99.90
580;DHT22;276;48.392;9.950;2024-01-06T00:54:49;9.60;99.90
580;DHT22;276;48.392;9.950;2024-01-06T00:57:15;9.60;99.90
580;DHT22;276;48.392;9.950;2024-01-06T00:59:43;9.60;99.90
580;DHT22;276;48.392;9.950;2024-01-06T01:02:08;9.60;99.90
580;DHT22;276;48.392;9.950;2024-01-06T01:04:36;9.60;99.90
580;DHT22;276;48.392;9.950;2024-01-06T01:07:07;9.60;99.90
580;DHT22;276;48.392;9.950;2024-01-06T01:09:35;9.60;99.90
580;DHT22;276;48.392;9.950;2024-01-06T01:12:00;9.60;99.90
580;DHT22;276;48.392;9.950;2024-01-06T01:14:26;9.60;99.90
580;DHT22;276;48.392;9.950;2024-01-06T01:16:51;9.50;99.90
580;DHT22;276;48.392;9.950;2024-01-06T01:19:17;9.50;99.90
580;DHT22;276;48.392;9.950;2024-01-06T01:21:43;9.50;99.90
580;DHT22;276;48.392;9.950;2024-01-06T01:24:08;9.50;99.90
580;DHT22;276;48.392;9.950;2024-01-06T01:26:36;9.50;99.90
580;DHT22;276;48.392;9.950;2024-01-06T01:29:08;9.50;99.90
580;DHT22;276;48.392;9.950;2024-01-06T01:31:34;9.50;99.90
580;DHT22;276;48.392;9.950;2024-01-06T01:34:02;9.50;99.90
580;DHT22;276;48.392;9.950;2024-01-06T01:36:28;9.50;99.90
580;DHT22;276;48.392;9.950;2024-01-06T01:38:55;9.50;99.90
580;DHT22;276;48.392;9.950;2024-01-06T01:41:24;9.50;99.90
580;DHT22;276;48.392;9.950;2024-01-06T01:43:50;9.50;99.90
580;DHT22;276;48.392;9.950;2024-01-06T01:46:26;9.50;99.90
580;DHT22;276;48.392;9.950;2024-01-06T01:48:54;9.50;99.90
580;DHT22;276;48.392;9.950;2024-01-06T01:51:24;9.50;99.90
580;DHT22;276;48.392;9.950;2024-01-06T01:53:52;9.40;99.90
580;DHT22;276;48.392;9.950;2024-01-06T01:56:22;9.40;99.90
580;DHT22;276;48.392;9.950;2024-01-06T01:58:50;9.40;99.90
580;DHT22;276;48.392;9.950;2024-01-06T02:01:18;9.40;99.90
580;DHT22;276;48.392;9.950;2024-01-06T02:03:44;9.40;99.90
580;DHT22;276;48.392;9.950;2024-01-06T02:06:12;9.40;99.90
580;DHT22;276;48.392;9.950;2024-01-06T02:08:45;9.40;99.90
580;DHT22;276;48.392;9.950;2024-01-06T02:11:13;9.40;99.90
580;DHT22;276;48.392;9.950;2024-01-06T02:13:43;9.30;99.90
580;DHT22;276;48.392;9.950;2024-01-06T02:16:11;9.30;99.90
580;DHT22;276;48.392;9.950;2024-01-06T02:18:39;9.40;99.90
580;DHT22;276;48.392;9.950;2024-01-06T02:21:07;9.30;99.90
580;DHT22;276;48.392;9.950;2024-01-06T02:23:37;9.30;99.90
580;DHT22;276;48.392;9.950;2024-01-06T02:26:07;9.30;99.90
580;DHT22;276;48.392;9.950;2024-01-06T02:28:38;9.30;99.90
580;DHT22;276;48.392;9.950;2024-01-06T02:31:06;9.30;99.90
580;DHT22;276;48.392;9.950;2024-01-06T02:33:32;9.30;99.90
580;DHT22;276;48.392;9.950;2024-01-06T02:35:57;9.30;99.90
580;DHT22;276;48.392;9.950;2024-01-06T02:38:25;9.20;99.90
580;DHT22;276;48.392;9.950;2024-01-06T02:40:53;9.20;99.90
580;DHT22;276;48.392;9.950;2024-01-06T02:43:21;9.20;99.90
580;DHT22;276;48.392;9.950;2024-01-06T02:45:51;9.30;99.90
580;DHT22;276;48.392;9.950;2024-01-06T02:48:21;9.20;99.90
580;DHT22;276;48.392;9.950;2024-01-06T02:50:49;9.30;99.90
580;DHT22;276;48.392;9.950;2024-01-06T02:53:15;9.30;99.90
580;DHT22;276;48.392;9.950;2024-01-06T02:55:45;9.30;99.90
580;DHT22;276;48.392;9.950;2024-01-06T02:58:13;9.30;99.90
580;DHT22;276;48.392;9.950;2024-01-06T03:00:41;9.20;99.90
580;DHT22;276;48.392;9.950;2024-01-06T03:03:07;9.20;99.90
580;DHT22;276;48.392;9.950;2024-01-06T03:05:35;9.20;99.90
580;DHT22;276;48.392;9.950;2024-01-06T03:08:03;9.20;99.90
580;DHT22;276;48.392;9.950;2024-01-06T03:10:28;9.20;99.90
580;DHT22;276;48.392;9.950;2024-01-06T03:12:54;9.20;99.90
580;DHT22;276;48.392;9.950;2024-01-06T03:15:22;9.20;99.90
580;DHT22;276;48.392;9.950;2024-01-06T03:17:47;9.20;99.90
580;DHT22;276;48.392;9.950;2024-01-06T03:20:13;9.20;99.90
580;DHT22;276;48.392;9.950;2024-01-06T03:22:39;9.20;99.90
580;DHT22;276;48.392;9.950;2024-01-06T03:25:05;9.20;99.90
580;DHT22;276;48.392;9.950;2024-01-06T03:27:37;9.10;99.90
580;DHT22;276;48.392;9.950;2024-01-06T03:30:03;9.10;99.90
580;DHT22;276;48.392;9.950;2024-01-06T03:32:31;9.10;99.90
580;DHT22;276;48.392;9.950;2024-01-06T03:34:57;9.10;99.90
580;DHT22;276;48.392;9.950;2024-01-06T03:37:25;9.10;99.90
580;DHT22;276;48.392;9.950;2024-01-06T03:39:50;9.10;99.90
580;DHT22;276;48.392;9.950;2024-01-06T03:42:16;9.10;99.90
580;DHT22;276;48.392;9.950;2024-01-06T03:44:44;9.10;99.90
580;DHT22;276;48.392;9.950;2024-01-06T03:47:12;9.10;99.90
580;DHT22;276;48.392;9.950;2024-01-06T03:49:39;9.10;99.90
580;DHT22;276;48.392;9.950;2024-01-06T03:52:08;9.10;99.90
580;DHT22;276;48.392;9.950;2024-01-06T03:54:33;9.10;99.90
580;DHT22;276;48.392;9.950;2024-01-06T03:57:01;9.00;99.90
580;DHT22;276;48.392;9.950;2024-01-06T03:59:27;9.00;99.90
580;DHT22;276;48.392;9.950;2024-01-06T04:01:52;9.00;99.90
580;DHT22;276;48.392;9.950;2024-01-06T04:04:18;9.00;99.90
580;DHT22;276;48.392;9.950;2024-01-06T04:06:44;9.00;99.90
580;DHT22;276;48.392;9.950;2024-01-06T04:09:09;9.00;99.90
580;DHT22;276;48.392;9.950;2024-01-06T04:11:35;9.00;99.90
580;DHT22;276;48.392;9.950;2024-01-06T04:14:04;9.00;99.90
580;DHT22;276;48.392;9.950;2024-01-06T04:16:30;9.00;99.90
580;DHT22;276;48.392;9.950;2024-01-06T04:18:55;9.00;99.90
580;DHT22;276;48.392;9.950;2024-01-06T04:21:21;9.00;99.90
580;DHT22;276;48.392;9.950;2024-01-06T04:23:49;9.00;99.90
580;DHT22;276;48.392;9.950;2024-01-06T04:26:17;9.00;99.90
580;DHT22;276;48.392;9.950;2024-01-06T04:28:43;8.90;99.90
580;DHT22;276;48.392;9.950;2024-01-06T04:31:08;9.00;99.90
580;DHT22;276;48.392;9.950;2024-01-06T04:33:34;8.90;99.90
580;DHT22;276;48.392;9.950;2024-01-06T04:36:02;8.90;99.90
580;DHT22;276;48.392;9.950;2024-01-06T04:38:28;8.90;99.90
580;DHT22;276;48.392;9.950;2024-01-06T04:40:53;8.90;99.90
580;DHT22;276;48.392;9.950;2024-01-06T04:43:19;8.90;99.90
580;DHT22;276;48.392;9.950;2024-01-06T04:45:44;8.90;99.90
580;DHT22;276;48.392;9.950;2024-01-06T04:48:10;8.90;99.90
580;DHT22;276;48.392;9.950;2024-01-06T04:50:36;8.90;99.90
580;DHT22;276;48.392;9.950;2024-01-06T04:53:06;8.80;99.90
580;DHT22;276;48.392;9.950;2024-01-06T04:55:34;8.80;99.90
580;DHT22;276;48.392;9.950;2024-01-06T04:58:00;8.80;99.90
580;DHT22;276;48.392;9.950;2024-01-06T05:00:25;8.80;99.90
580;DHT22;276;48.392;9.950;2024-01-06T05:02:55;8.80;99.90
580;DHT22;276;48.392;9.950;2024-01-06T05:05:23;8.80;99.90
580;DHT22;276;48.392;9.950;2024-01-06T05:07:49;8.80;99.90
580;DHT22;276;48.392;9.950;2024-01-06T05:10:17;8.80;99.90
580;DHT22;276;48.392;9.950;2024-01-06T05:12:42;8.80;99.90
580;DHT22;276;48.392;9.950;2024-01-06T05:15:09;8.80;99.90
580;DHT22;276;48.392;9.950;2024-01-06T05:17:34;8.80;99.90
580;DHT22;276;48.392;9.950;2024-01-06T05:20:02;8.80;99.90
580;DHT22;276;48.392;9.950;2024-01-06T05:22:30;8.80;99.90
580;DHT22;276;48.392;9.950;2024-01-06T05:24:58;8.80;99.90
580;DHT22;276;48.392;9.950;2024-01-06T05:27:26;8.90;99.90
580;DHT22;276;48.392;9.950;2024-01-06T05:29:54;8.80;99.90
580;DHT22;276;48.392;9.950;2024-01-06T05:32:20;8.80;99.90
580;DHT22;276;48.392;9.950;2024-01-06T05:34:45;8.80;99.90
580;DHT22;276;48.392;9.950;2024-01-06T05:37:11;8.80;99.90
580;DHT22;276;48.392;9.950;2024-01-06T05:39:40;8.80;99.90
580;DHT22;276;48.392;9.950;2024-01-06T05:42:09;8.90;99.90
580;DHT22;276;48.392;9.950;2024-01-06T05:44:38;8.90;99.90
580;DHT22;276;48.392;9.950;2024-01-06T05:47:04;8.90;99.90
580;DHT22;276;48.392;9.950;2024-01-06T05:49:30;8.90;99.90
580;DHT22;276;48.392;9.950;2024-01-06T05:51:55;8.90;99.90
580;DHT22;276;48.392;9.950;2024-01-06T05:54:21;8.90;99.90
580;DHT22;276;48.392;9.950;2024-01-06T05:56:49;8.90;99.90
580;DHT22;276;48.392;9.950;2024-01-06T05:59:14;8.90;99.90
580;DHT22;276;48.392;9.950;2024-01-06T06:01:44;8.90;99.90
580;DHT22;276;48.392;9.950;2024-01-06T06:04:11;8.90;99.90
580;DHT22;276;48.392;9.950;2024-01-06T06:06:39;8.90;99.90
580;DHT22;276;48.392;9.950;2024-01-06T06:09:07;8.90;99.90
580;DHT22;276;48.392;9.950;2024-01-06T06:11:36;8.90;99.90
580;DHT22;276;48.392;9.950;2024-01-06T06:14:01;8.90;99.90
580;DHT22;276;48.392;9.950;2024-01-06T06:16:28;8.90;99.90
580;DHT22;276;48.392;9.950;2024-01-06T06:18:55;8.90;99.90
580;DHT22;276;48.392;9.950;2024-01-06T06:21:20;8.90;99.90
580;DHT22;276;48.392;9.950;2024-01-06T06:23:49;8.90;99.90
580;DHT22;276;48.392;9.950;2024-01-06T06:26:17;8.90;99.90
580;DHT22;276;48.392;9.950;2024-01-06T06:28:42;8.90;99.90
580;DHT22;276;48.392;9.950;2024-01-06T06:31:10;8.90;99.90
580;DHT22;276;48.392;9.950;2024-01-06T06:33:39;8.90;99.90
580;DHT22;276;48.392;9.950;2024-01-06T06:36:05;8.80;99.90
580;DHT22;276;48.392;9.950;2024-01-06T06:38:31;8.80;99.90
580;DHT22;276;48.392;9.950;2024-01-06T06:40:59;8.70;99.90
580;DHT22;276;48.392;9.950;2024-01-06T06:43:25;8.70;99.90
580;DHT22;276;48.392;9.950;2024-01-06T06:45:55;8.70;99.90
580;DHT22;276;48.392;9.950;2024-01-06T06:48:22;8.70;99.90
580;DHT22;276;48.392;9.950;2024-01-06T06:50:50;8.70;99.90
580;DHT22;276;48.392;9.950;2024-01-06T06:53:15;8.70;99.90
580;DHT22;276;48.392;9.950;2024-01-06T06:55:41;8.70;99.90
580;DHT22;276;48.392;9.950;2024-01-06T06:58:09;8.70;99.90
580;DHT22;276;48.392;9.950;2024-01-06T07:00:35;8.80;99.90
580;DHT22;276;48.392;9.950;2024-01-06T07:03:03;8.70;99.90
580;DHT22;276;48.392;9.950;2024-01-06T07:05:28;8.70;99.90
580;DHT22;276;48.392;9.950;2024-01-06T07:07:57;8.70;99.90
580;DHT22;276;48.392;9.950;2024-01-06T07:10:25;8.70;99.90
580;DHT22;276;48.392;9.950;2024-01-06T07:12:53;8.70;99.90
580;DHT22;276;48.392;9.950;2024-01-06T07:15:19;8.70;99.90
580;DHT22;276;48.392;9.950;2024-01-06T07:17:45;8.70;99.90
580;DHT22;276;48.392;9.950;2024-01-06T07:20:12;8.70;99.90
580;DHT22;276;48.392;9.950;2024-01-06T07:22:43;8.70;99.90
580;DHT22;276;48.392;9.950;2024-01-06T07:25:09;8.70;99.90
580;DHT22;276;48.392;9.950;2024-01-06T07:27:37;8.70;99.90
580;DHT22;276;48.392;9.950;2024-01-06T07:30:03;8.70;99.90
580;DHT22;276;48.392;9.950;2024-01-06T07:32:28;8.70;99.90
580;DHT22;276;48.392;9.950;2024-01-06T07:34:56;8.70;99.90
580;DHT22;276;48.392;9.950;2024-01-06T07:37:24;8.70;99.90
580;DHT22;276;48.392;9.950;2024-01-06T07:39:51;8.70;99.90
580;DHT22;276;48.392;9.950;2024-01-06T07:42:17;8.70;99.90
580;DHT22;276;48.392;9.950;2024-01-06T07:44:45;8.70;99.90
580;DHT22;276;48.392;9.950;2024-01-06T07:47:11;8.70;99.90
580;DHT22;276;48.392;9.950;2024-01-06T07:49:42;8.70;99.90
580;DHT22;276;48.392;9.950;2024-01-06T07:52:07;8.60;99.90
580;DHT22;276;48.392;9.950;2024-01-06T07:54:33;8.60;99.90
580;DHT22;276;48.392;9.950;2024-01-06T07:57:01;8.60;99.90
580;DHT22;276;48.392;9.950;2024-01-06T07:59:26;8.60;99.90
580;DHT22;276;48.392;9.950;2024-01-06T08:01:52;8.60;99.90
580;DHT22;276;48.392;9.950;2024-01-06T08:04:17;8.60;99.90
580;DHT22;276;48.392;9.950;2024-01-06T08:06:43;8.60;99.90
580;DHT22;276;48.392;9.950;2024-01-06T08:09:09;8.70;99.90
580;DHT22;276;48.392;9.950;2024-01-06T08:11:37;8.70;99.90
580;DHT22;276;48.392;9.950;2024-01-06T08:14:07;8.70;99.90
580;DHT22;276;48.392;9.950;2024-01-06T08:16:36;8.70;99.90
580;DHT22;276;48.392;9.950;2024-01-06T08:19:06;8.70;99.90
580;DHT22;276;48.392;9.950;2024-01-06T08:21:34;8.70;99.90
580;DHT22;276;48.392;9.950;2024-01-06T08:24:02;8.70;99.90
580;DHT22;276;48.392;9.950;2024-01-06T08:26:28;8.60;99.90
580;DHT22;276;48.392;9.950;2024-01-06T08:28:59;8.50;99.90
580;DHT22;276;48.392;9.950;2024-01-06T08:31:30;8.50;99.90
580;DHT22;276;48.392;9.950;2024-01-06T08:33:55;8.60;99.90
580;DHT22;276;48.392;9.950;2024-01-06T08:36:23;8.50;99.90
580;DHT22;276;48.392;9.950;2024-01-06T08:38:49;8.40;99.90
580;DHT22;276;48.392;9.950;2024-01-06T08:41:14;8.40;99.90
580;DHT22;276;48.392;9.950;2024-01-06T08:43:42;8.40;99.90
580;DHT22;276;48.392;9.950;2024-01-06T08:46:10;8.40;99.90
580;DHT22;276;48.392;9.950;2024-01-06T08:48:40;8.40;99.90
580;DHT22;276;48.392;9.950;2024-01-06T08:51:06;8.30;99.90
580;DHT22;276;48.392;9.950;2024-01-06T08:53:34;8.30;99.90
580;DHT22;276;48.392;9.950;2024-01-06T08:56:04;8.30;99.90
580;DHT22;276;48.392;9.950;2024-01-06T08:58:31;8.30;99.90
580;DHT22;276;48.392;9.950;2024-01-06T09:00:59;8.30;99.90
580;DHT22;276;48.392;9.950;2024-01-06T09:03:27;8.20;99.90
580;DHT22;276;48.392;9.950;2024-01-06T09:05:56;8.20;99.90
580;DHT22;276;48.392;9.950;2024-01-06T09:08:25;8.20;99.90
580;DHT22;276;48.392;9.950;2024-01-06T09:10:50;8.30;99.90
580;DHT22;276;48.392;9.950;2024-01-06T09:13:24;8.30;99.90
580;DHT22;276;48.392;9.950;2024-01-06T09:15:52;8.30;99.90
580;DHT22;276;48.392;9.950;2024-01-06T09:18:18;8.30;99.90
580;DHT22;276;48.392;9.950;2024-01-06T09:20:44;8.30;99.90
580;DHT22;276;48.392;9.950;2024-01-06T09:23:10;8.30;99.90
580;DHT22;276;48.392;9.950;2024-01-06T09:25:36;8.40;99.90
580;DHT22;276;48.392;9.950;2024-01-06T09:28:01;8.30;99.90
580;DHT22;276;48.392;9.950;2024-01-06T09:30:27;8.40;99.90
580;DHT22;276;48.392;9.950;2024-01-06T09:32:52;8.40;99.90
580;DHT22;276;48.392;9.950;2024-01-06T09:35:18;8.40;99.90
580;DHT22;276;48.392;9.950;2024-01-06T09:37:51;8.40;99.90
580;DHT22;276;48.392;9.950;2024-01-06T09:40:23;8.30;99.90
580;DHT22;276;48.392;9.950;2024-01-06T09:42:52;8.40;99.90
580;DHT22;276;48.392;9.950;2024-01-06T09:45:23;8.40;99.90
580;DHT22;276;48.392;9.950;2024-01-06T09:47:50;8.40;99.90
580;DHT22;276;48.392;9.950;2024-01-06T09:50:21;8.40;99.90
580;DHT22;276;48.392;9.950;2024-01-06T09:52:47;8.40;99.90
580;DHT22;276;48.392;9.950;2024-01-06T09:55:29;8.50;99.90
580;DHT22;276;48.392;9.950;2024-01-06T09:57:57;8.60;99.90
580;DHT22;276;48.392;9.950;2024-01-06T10:00:25;8.60;99.90
580;DHT22;276;48.392;9.950;2024-01-06T10:02:54;8.60;99.90
580;DHT22;276;48.392;9.950;2024-01-06T10:05:25;8.70;99.90
580;DHT22;276;48.392;9.950;2024-01-06T10:07:50;8.70;99.90
580;DHT22;276;48.392;9.950;2024-01-06T10:10:18;8.80;99.90
580;DHT22;276;48.392;9.950;2024-01-06T10:12:46;8.80;99.90
580;DHT22;276;48.392;9.950;2024-01-06T10:15:17;8.80;99.90
580;DHT22;276;48.392;9.950;2024-01-06T10:17:42;8.70;99.90
580;DHT22;276;48.392;9.950;2024-01-06T10:20:12;8.70;99.90
580;DHT22;276;48.392;9.950;2024-01-06T10:22:41;8.80;99.90
580;DHT22;276;48.392;9.950;2024-01-06T10:25:10;8.70;99.90
580;DHT22;276;48.392;9.950;2024-01-06T10:27:42;8.70;99.90
580;DHT22;276;48.392;9.950;2024-01-06T10:30:09;8.70;99.90
580;DHT22;276;48.392;9.950;2024-01-06T10:32:38;8.70;99.90
580;DHT22;276;48.392;9.950;2024-01-06T10:35:04;8.80;99.90
580;DHT22;276;48.392;9.950;2024-01-06T10:37:31;8.80;99.90
580;DHT22;276;48.392;9.950;2024-01-06T10:42:37;8.80;99.90
580;DHT22;276;48.392;9.950;2024-01-06T10:45:06;8.80;99.90
580;DHT22;276;48.392;9.950;2024-01-06T10:47:38;8.80;99.90
580;DHT22;276;48.392;9.950;2024-01-06T10:50:05;8.80;99.90
580;DHT22;276;48.392;9.950;2024-01-06T10:52:34;8.80;99.90
580;DHT22;276;48.392;9.950;2024-01-06T10:55:07;8.80;99.90
580;DHT22;276;48.392;9.950;2024-01-06T10:57:33;8.80;99.90
580;DHT22;276;48.392;9.950;2024-01-06T11:00:00;8.90;99.90
580;DHT22;276;48.392;9.950;2024-01-06T11:02:33;8.80;99.90
580;DHT22;276;48.392;9.950;2024-01-06T11:04:59;8.90;99.90
580;DHT22;276;48.392;9.950;2024-01-06T11:07:32;8.90;99.90
580;DHT22;276;48.392;9.950;2024-01-06T11:12:35;8.90;99.90
580;DHT22;276;48.392;9.950;2024-01-06T11:15:06;8.80;99.90
580;DHT22;276;48.392;9.950;2024-01-06T11:17:53;8.80;99.90
580;DHT22;276;48.392;9.950;2024-01-06T11:20:21;8.80;99.90
580;DHT22;276;48.392;9.950;2024-01-06T11:22:50;8.70;99.90
580;DHT22;276;48.392;9.950;2024-01-06T11:25:19;8.80;99.90
580;DHT22;276;48.392;9.950;2024-01-06T11:27:49;8.70;99.90
580;DHT22;276;48.392;9.950;2024-01-06T11:32:53;8.80;99.90
580;DHT22;276;48.392;9.950;2024-01-06T11:35:21;8.80;99.90
580;DHT22;276;48.392;9.950;2024-01-06T11:43:06;8.90;99.90
580;DHT22;276;48.392;9.950;2024-01-06T11:45:38;8.90;99.90
580;DHT22;276;48.392;9.950;2024-01-06T11:48:09;8.90;99.90
580;DHT22;276;48.392;9.950;2024-01-06T11:50:37;9.00;99.90
580;DHT22;276;48.392;9.950;2024-01-06T11:53:03;9.00;99.90
580;DHT22;276;48.392;9.950;2024-01-06T11:55:29;8.90;99.90
580;DHT22;276;48.392;9.950;2024-01-06T11:58:00;8.90;99.90
580;DHT22;276;48.392;9.950;2024-01-06T12:00:32;8.90;99.90
580;DHT22;276;48.392;9.950;2024-01-06T12:02:58;9.00;99.90
580;DHT22;276;48.392;9.950;2024-01-06T12:05:27;9.00;99.90
580;DHT22;276;48.392;9.950;2024-01-06T12:08:00;9.00;99.90
580;DHT22;276;48.392;9.950;2024-01-06T12:10:28;9.00;99.90
580;DHT22;276;48.392;9.950;2024-01-06T12:13:06;9.00;99.90
580;DHT22;276;48.392;9.950;2024-01-06T12:15:36;9.10;99.90
580;DHT22;276;48.392;9.950;2024-01-06T12:18:05;9.10;99.90
580;DHT22;276;48.392;9.950;2024-01-06T12:20:31;9.10;99.90
580;DHT22;276;48.392;9.950;2024-01-06T12:23:02;9.20;99.90
580;DHT22;276;48.392;9.950;2024-01-06T12:25:34;9.20;99.90
580;DHT22;276;48.392;9.950;2024-01-06T12:28:01;9.20;99.90
580;DHT22;276;48.392;9.950;2024-01-06T12:30:27;9.30;99.90
580;DHT22;276;48.392;9.950;2024-01-06T12:32:56;9.30;99.90
580;DHT22;276;48.392;9.950;2024-01-06T12:35:22;9.30;99.90
580;DHT22;276;48.392;9.950;2024-01-06T12:37:53;9.30;99.90
580;DHT22;276;48.392;9.950;2024-01-06T12:40:21;9.30;99.90
580;DHT22;276;48.392;9.950;2024-01-06T12:42:50;9.30;99.90
580;DHT22;276;48.392;9.950;2024-01-06T12:45:20;9.40;99.90
580;DHT22;276;48.392;9.950;2024-01-06T12:47:46;9.40;99.90
580;DHT22;276;48.392;9.950;2024-01-06T12:50:14;9.40;99.90
580;DHT22;276;48.392;9.950;2024-01-06T12:52:42;9.40;99.90
580;DHT22;276;48.392;9.950;2024-01-06T12:55:11;9.40;99.90
580;DHT22;276;48.392;9.950;2024-01-06T12:57:39;9.40;99.90
580;DHT22;276;48.392;9.950;2024-01-06T13:00:05;9.40;99.90
580;DHT22;276;48.392;9.950;2024-01-06T13:02:35;9.40;99.90
580;DHT22;276;48.392;9.950;2024-01-06T13:05:03;9.40;99.90
580;DHT22;276;48.392;9.950;2024-01-06T13:07:32;9.40;99.90
580;DHT22;276;48.392;9.950;2024-01-06T13:09:58;9.40;99.90
580;DHT22;276;48.392;9.950;2024-01-06T13:12:26;9.40;99.90
580;DHT22;276;48.392;9.950;2024-01-06T13:14:52;9.40;99.90
580;DHT22;276;48.392;9.950;2024-01-06T13:17:20;9.40;99.90
580;DHT22;276;48.392;9.950;2024-01-06T13:19:50;9.40;99.90
580;DHT22;276;48.392;9.950;2024-01-06T13:22:15;9.40;99.90
580;DHT22;276;48.392;9.950;2024-01-06T13:24:46;9.40;99.90
580;DHT22;276;48.392;9.950;2024-01-06T13:27:13;9.40;99.90
580;DHT22;276;48.392;9.950;2024-01-06T13:29:42;9.40;99.90
580;DHT22;276;48.392;9.950;2024-01-06T13:32:10;9.40;99.90
580;DHT22;276;48.392;9.950;2024-01-06T13:34:39;9.40;99.90
580;DHT22;276;48.392;9.950;2024-01-06T13:37:04;9.40;99.90
580;DHT22;276;48.392;9.950;2024-01-06T13:39:32;9.40;99.90
580;DHT22;276;48.392;9.950;2024-01-06T13:41:58;9.40;99.90
580;DHT22;276;48.392;9.950;2024-01-06T13:44:24;9.40;99.90
580;DHT22;276;48.392;9.950;2024-01-06T13:46:52;9.40;99.90
580;DHT22;276;48.392;9.950;2024-01-06T13:49:21;9.40;99.90
580;DHT22;276;48.392;9.950;2024-01-06T13:51:52;9.40;99.90
580;DHT22;276;48.392;9.950;2024-01-06T13:54:17;9.40;99.90
580;DHT22;276;48.392;9.950;2024-01-06T13:56:43;9.40;99.90
580;DHT22;276;48.392;9.950;2024-01-06T13:59:09;9.40;99.90
580;DHT22;276;48.392;9.950;2024-01-06T14:01:39;9.40;99.90
580;DHT22;276;48.392;9.950;2024-01-06T14:04:04;9.40;99.90
580;DHT22;276;48.392;9.950;2024-01-06T14:06:31;9.40;99.90
580;DHT22;276;48.392;9.950;2024-01-06T14:08:57;9.40;99.90
580;DHT22;276;48.392;9.950;2024-01-06T14:11:23;9.40;99.90
580;DHT22;276;48.392;9.950;2024-01-06T14:13:50;9.40;99.90
580;DHT22;276;48.392;9.950;2024-01-06T14:16:19;9.40;99.90
580;DHT22;276;48.392;9.950;2024-01-06T14:18:48;9.40;99.90
580;DHT22;276;48.392;9.950;2024-01-06T14:21:14;9.40;99.90
580;DHT22;276;48.392;9.950;2024-01-06T14:23:43;9.40;99.90
580;DHT22;276;48.392;9.950;2024-01-06T14:26:11;9.40;99.90
580;DHT22;276;48.392;9.950;2024-01-06T14:28:37;9.40;99.90
580;DHT22;276;48.392;9.950;2024-01-06T14:31:02;9.40;99.90
580;DHT22;276;48.392;9.950;2024-01-06T14:33:30;9.40;99.90
580;DHT22;276;48.392;9.950;2024-01-06T14:35:58;9.40;99.90
580;DHT22;276;48.392;9.950;2024-01-06T14:38:24;9.40;99.90
580;DHT22;276;48.392;9.950;2024-01-06T14:40:50;9.40;99.90
580;DHT22;276;48.392;9.950;2024-01-06T14:43:20;9.40;99.90
580;DHT22;276;48.392;9.950;2024-01-06T14:45:48;9.40;99.90
580;DHT22;276;48.392;9.950;2024-01-06T14:48:16;9.40;99.90
580;DHT22;276;48.392;9.950;2024-01-06T14:50:44;9.40;99.90
580;DHT22;276;48.392;9.950;2024-01-06T14:53:16;9.40;99.90
580;DHT22;276;48.392;9.950;2024-01-06T14:55:42;9.30;99.90
580;DHT22;276;48.392;9.950;2024-01-06T14:58:07;9.30;99.90
580;DHT22;276;48.392;9.950;2024-01-06T15:00:36;9.30;99.90
580;DHT22;276;48.392;9.950;2024-01-06T15:03:01;9.30;99.90
580;DHT22;276;48.392;9.950;2024-01-06T15:05:27;9.30;99.90
580;DHT22;276;48.392;9.950;2024-01-06T15:07:56;9.30;99.90
580;DHT22;276;48.392;9.950;2024-01-06T15:10:22;9.30;99.90
580;DHT22;276;48.392;9.950;2024-01-06T15:12:48;9.30;99.90
580;DHT22;276;48.392;9.950;2024-01-06T15:15:18;9.30;99.90
580;DHT22;276;48.392;9.950;2024-01-06T15:17:44;9.30;99.90
580;DHT22;276;48.392;9.950;2024-01-06T15:20:14;9.30;99.90
580;DHT22;276;48.392;9.950;2024-01-06T15:22:42;9.30;99.90
580;DHT22;276;48.392;9.950;2024-01-06T15:25:10;9.30;99.90
580;DHT22;276;48.392;9.950;2024-01-06T15:27:36;9.20;99.90
580;DHT22;276;48.392;9.950;2024-01-06T15:30:04;9.20;99.90
580;DHT22;276;48.392;9.950;2024-01-06T15:32:37;9.20;99.90
580;DHT22;276;48.392;9.950;2024-01-06T15:35:04;9.20;99.90
580;DHT22;276;48.392;9.950;2024-01-06T15:37:35;9.10;99.90
580;DHT22;276;48.392;9.950;2024-01-06T15:40:02;9.10;99.90
580;DHT22;276;48.392;9.950;2024-01-06T15:42:30;9.10;99.90
580;DHT22;276;48.392;9.950;2024-01-06T15:44:57;9.10;99.90
580;DHT22;276;48.392;9.950;2024-01-06T15:47:27;9.10;99.90
580;DHT22;276;48.392;9.950;2024-01-06T15:49:56;9.10;99.90
580;DHT22;276;48.392;9.950;2024-01-06T15:52:21;9.10;99.90
580;DHT22;276;48.392;9.950;2024-01-06T15:54:49;9.10;99.90
580;DHT22;276;48.392;9.950;2024-01-06T15:57:21;9.10;99.90
580;DHT22;276;48.392;9.950;2024-01-06T15:59:49;9.10;99.90
580;DHT22;276;48.392;9.950;2024-01-06T16:02:15;9.10;99.90
580;DHT22;276;48.392;9.950;2024-01-06T16:04:40;9.10;99.90
580;DHT22;276;48.392;9.950;2024-01-06T16:07:06;9.10;99.90
580;DHT22;276;48.392;9.950;2024-01-06T16:09:32;9.10;99.90
580;DHT22;276;48.392;9.950;2024-01-06T16:11:57;9.10;99.90
580;DHT22;276;48.392;9.950;2024-01-06T16:14:24;9.10;99.90
580;DHT22;276;48.392;9.950;2024-01-06T16:16:53;9.10;99.90
580;DHT22;276;48.392;9.950;2024-01-06T16:19:24;9.10;99.90
580;DHT22;276;48.392;9.950;2024-01-06T16:21:49;9.10;99.90
580;DHT22;276;48.392;9.950;2024-01-06T16:24:16;9.10;99.90
580;DHT22;276;48.392;9.950;2024-01-06T16:26:45;9.10;99.90
580;DHT22;276;48.392;9.950;2024-01-06T16:29:10;9.20;99.90
580;DHT22;276;48.392;9.950;2024-01-06T16:31:38;9.10;99.90
580;DHT22;276;48.392;9.950;2024-01-06T16:34:06;9.10;99.90
580;DHT22;276;48.392;9.950;2024-01-06T16:36:37;9.10;99.90
580;DHT22;276;48.392;9.950;2024-01-06T16:39:03;9.10;99.90
580;DHT22;276;48.392;9.950;2024-01-06T16:41:31;9.00;99.90
580;DHT22;276;48.392;9.950;2024-01-06T16:43:59;9.00;99.90
580;DHT22;276;48.392;9.950;2024-01-06T16:46:27;9.00;99.90
580;DHT22;276;48.392;9.950;2024-01-06T16:48:55;9.00;99.90
580;DHT22;276;48.392;9.950;2024-01-06T16:51:25;9.00;99.90
580;DHT22;276;48.392;9.950;2024-01-06T16:53:53;9.00;99.90
580;DHT22;276;48.392;9.950;2024-01-06T16:56:19;9.00;99.90
580;DHT22;276;48.392;9.950;2024-01-06T16:58:44;9.00;99.90
580;DHT22;276;48.392;9.950;2024-01-06T17:01:12;9.00;99.90
580;DHT22;276;48.392;9.950;2024-01-06T17:03:42;8.90;99.90
580;DHT22;276;48.392;9.950;2024-01-06T17:06:07;8.90;99.90